createdAt,value
2019-01-18T00:00:49.961Z,26.40
2019-01-18T00:03:21.577Z,25.30
2019-01-18T00:05:53.799Z,23.27
2019-01-18T00:08:25.308Z,23.30
2019-01-18T00:10:57.004Z,24.40
2019-01-18T00:13:28.804Z,24.93
2019-01-18T00:16:00.831Z,22.60
2019-01-18T00:18:33.059Z,23.53
2019-01-18T00:21:07.449Z,23.37
2019-01-18T00:23:39.694Z,23.27
2019-01-18T00:26:11.303Z,24.10
2019-01-18T00:28:43.285Z,25.13
2019-01-18T00:31:15.118Z,24.40
2019-01-18T00:33:47.038Z,23.50
2019-01-18T00:36:19.275Z,24.23
2019-01-18T00:38:51.033Z,25.53
2019-01-18T00:41:23.046Z,22.20
2019-01-18T00:43:55.481Z,23.23
2019-01-18T00:46:27.717Z,25.90
2019-01-18T00:48:59.801Z,24.50
2019-01-18T00:51:31.789Z,24.63
2019-01-18T00:54:03.609Z,23.33
2019-01-18T00:56:35.403Z,24.10
2019-01-18T00:59:07.203Z,25.87
2019-01-18T01:01:39.008Z,26.23
2019-01-18T01:04:10.841Z,27.97
2019-01-18T01:06:42.389Z,26.40
2019-01-18T01:09:14.043Z,27.20
2019-01-18T01:11:45.757Z,27.53
2019-01-18T01:14:17.385Z,27.47
2019-01-18T01:16:49.078Z,27.63
2019-01-18T01:19:20.663Z,28.97
2019-01-18T01:21:52.267Z,28.67
2019-01-18T01:24:23.936Z,30.00
2019-01-18T01:26:55.563Z,27.97
2019-01-18T01:29:27.428Z,28.07
2019-01-18T01:31:59.040Z,32.27
2019-01-18T01:34:30.656Z,26.33
2019-01-18T01:37:02.306Z,27.10
2019-01-18T01:39:34.239Z,27.07
2019-01-18T01:42:06.148Z,23.00
2019-01-18T01:44:37.675Z,22.77
2019-01-18T01:47:09.478Z,21.87
2019-01-18T01:49:41.158Z,17.13
2019-01-18T01:52:12.898Z,15.70
2019-01-18T01:54:44.519Z,16.87
2019-01-18T01:57:16.227Z,15.40
2019-01-18T01:59:49.907Z,17.73
2019-01-18T02:02:20.904Z,15.27
2019-01-18T02:04:52.449Z,14.60
2019-01-18T02:07:24.689Z,14.37
2019-01-18T02:09:56.212Z,15.23
2019-01-18T02:12:27.948Z,16.03
2019-01-18T02:14:59.663Z,14.97
2019-01-18T02:17:31.340Z,14.90
2019-01-18T02:20:02.866Z,15.40
2019-01-18T02:22:34.479Z,17.40
2019-01-18T02:25:06.295Z,14.67
2019-01-18T02:27:37.927Z,15.90
2019-01-18T02:30:13.984Z,12.73
2019-01-18T02:32:45.674Z,12.60
2019-01-18T02:35:17.560Z,10.80
2019-01-18T02:37:49.233Z,9.60
2019-01-18T02:40:21.073Z,11.33
2019-01-18T02:42:52.905Z,9.43
2019-01-18T02:45:25.357Z,7.87
2019-01-18T02:47:57.076Z,7.47
2019-01-18T02:50:28.849Z,8.40
2019-01-18T02:53:00.322Z,7.40
2019-01-18T02:55:32.029Z,6.70
2019-01-18T02:58:03.746Z,7.63
2019-01-18T03:00:35.290Z,7.03
2019-01-18T03:03:07.297Z,6.73
2019-01-18T03:05:38.883Z,6.90
2019-01-18T03:08:10.450Z,7.17
2019-01-18T03:10:42.090Z,7.13
2019-01-18T03:13:13.684Z,5.93
2019-01-18T03:15:45.277Z,6.70
2019-01-18T03:18:16.813Z,5.23
2019-01-18T03:20:48.503Z,6.30
2019-01-18T03:23:20.170Z,5.67
2019-01-18T03:25:52.071Z,5.70
2019-01-18T03:28:24.420Z,5.17
2019-01-18T03:30:56.329Z,5.57
2019-01-18T03:33:28.655Z,6.13
2019-01-18T03:36:00.255Z,6.03
2019-01-18T03:38:32.546Z,6.73
2019-01-18T03:41:04.795Z,6.23
2019-01-18T03:43:36.439Z,6.47
2019-01-18T03:46:08.245Z,6.03
2019-01-18T03:48:39.722Z,6.80
2019-01-18T03:51:11.242Z,6.03
2019-01-18T03:53:42.904Z,7.67
2019-01-18T03:56:14.703Z,7.47
2019-01-18T03:58:46.255Z,6.87
2019-01-18T04:01:17.978Z,7.40
2019-01-18T04:03:49.573Z,6.53
2019-01-18T04:06:21.336Z,7.70
2019-01-18T04:08:52.891Z,6.37
2019-01-18T04:11:24.659Z,5.70
2019-01-18T04:13:56.714Z,5.83
2019-01-18T04:16:28.612Z,5.43
2019-01-18T04:19:00.181Z,5.73
2019-01-18T04:21:31.741Z,5.43
2019-01-18T04:24:03.607Z,5.30
2019-01-18T04:26:35.208Z,6.57
2019-01-18T04:29:06.995Z,6.30
2019-01-18T04:31:38.608Z,6.40
2019-01-18T04:34:10.198Z,5.93
2019-01-18T04:36:41.953Z,5.87
2019-01-18T04:39:13.526Z,4.97
2019-01-18T04:41:45.648Z,5.27
2019-01-18T04:44:17.255Z,4.37
2019-01-18T04:46:48.851Z,4.47
2019-01-18T04:49:20.575Z,4.77
2019-01-18T04:51:52.156Z,4.67
2019-01-18T04:54:23.673Z,4.43
2019-01-18T04:56:55.285Z,4.47
2019-01-18T04:59:27.067Z,4.77
2019-01-18T05:01:58.838Z,3.73
2019-01-18T05:04:32.022Z,3.87
2019-01-18T05:07:03.625Z,4.63
2019-01-18T05:09:35.244Z,4.17
2019-01-18T05:12:06.851Z,4.23
2019-01-18T05:14:38.376Z,4.57
2019-01-18T05:17:10.308Z,4.70
2019-01-18T05:19:41.985Z,4.30
2019-01-18T05:22:13.688Z,4.70
2019-01-18T05:24:49.546Z,5.10
2019-01-18T05:27:18.914Z,4.40
2019-01-18T05:29:50.761Z,4.17
2019-01-18T05:32:22.669Z,4.30
2019-01-18T05:34:54.271Z,5.47
2019-01-18T05:37:25.886Z,4.60
2019-01-18T05:39:57.571Z,4.70
2019-01-18T05:42:29.037Z,4.57
2019-01-18T05:45:00.985Z,4.53
2019-01-18T05:47:32.745Z,8.80
2019-01-18T05:50:05.315Z,5.17
2019-01-18T05:52:37.208Z,5.37
2019-01-18T05:55:08.932Z,5.43
2019-01-18T05:57:40.786Z,6.07
2019-01-18T06:00:26.939Z,7.30
2019-01-18T06:02:58.808Z,9.27
2019-01-18T06:05:31.988Z,9.97
2019-01-18T06:08:03.637Z,9.70
2019-01-18T06:10:35.282Z,8.57
2019-01-18T06:13:07.237Z,7.60
2019-01-18T06:15:40.479Z,7.17
2019-01-18T06:18:12.507Z,6.80
2019-01-18T06:20:44.279Z,6.80
2019-01-18T06:23:16.953Z,6.37
2019-01-18T06:25:48.666Z,6.20
2019-01-18T06:28:20.544Z,6.57
2019-01-18T06:30:52.335Z,6.37
2019-01-18T06:33:24.048Z,6.53
2019-01-18T06:35:55.942Z,7.37
2019-01-18T06:38:27.809Z,6.73
2019-01-18T06:41:07.813Z,6.63
2019-01-18T06:43:39.507Z,6.40
2019-01-18T06:46:11.206Z,7.30
2019-01-18T06:48:43.434Z,10.40
2019-01-18T06:51:15.363Z,11.73
2019-01-18T06:53:47.251Z,9.60
2019-01-18T06:56:19.058Z,8.57
2019-01-18T06:58:50.892Z,17.83
2019-01-18T07:01:22.634Z,6.57
2019-01-18T07:03:54.313Z,6.93
2019-01-18T07:06:26.467Z,6.43
2019-01-18T07:08:58.375Z,6.27
2019-01-18T07:11:30.926Z,6.40
2019-01-18T07:14:05.808Z,6.37
2019-01-18T07:16:38.506Z,6.57
2019-01-18T07:19:10.509Z,7.10
2019-01-18T07:21:43.474Z,6.23
2019-01-18T07:24:15.218Z,7.10
2019-01-18T07:26:47.184Z,8.50
2019-01-18T07:29:19.156Z,8.00
2019-01-18T07:31:50.805Z,7.67
2019-01-18T07:34:23.109Z,6.43
2019-01-18T07:36:55.339Z,7.10
2019-01-18T07:39:27.295Z,6.57
2019-01-18T07:41:59.009Z,7.13
2019-01-18T07:44:30.810Z,8.57
2019-01-18T07:47:02.974Z,6.70
2019-01-18T07:49:35.030Z,5.40
2019-01-18T07:52:08.882Z,5.67
2019-01-18T07:54:40.881Z,5.57
2019-01-18T07:57:12.712Z,5.67
2019-01-18T07:59:44.833Z,5.43
2019-01-18T08:02:16.928Z,5.40
2019-01-18T08:04:49.138Z,5.47
2019-01-18T08:07:21.228Z,6.23
2019-01-18T08:09:52.915Z,5.73
2019-01-18T08:12:25.278Z,5.63
2019-01-18T08:14:57.393Z,6.37
2019-01-18T08:17:30.444Z,7.50
2019-01-18T08:20:02.767Z,6.80
2019-01-18T08:22:34.680Z,8.30
2019-01-18T08:25:07.740Z,7.63
2019-01-18T08:27:39.447Z,7.47
2019-01-18T08:30:16.758Z,6.80
2019-01-18T08:32:49.198Z,5.93
2019-01-18T08:35:22.704Z,6.20
2019-01-18T08:37:54.607Z,5.80
2019-01-18T08:40:51.450Z,5.43
2019-01-18T08:43:23.198Z,4.97
2019-01-18T08:45:58.580Z,4.67
2019-01-18T08:48:30.764Z,4.50
2019-01-18T08:51:03.896Z,6.83
2019-01-18T08:53:35.634Z,4.23
2019-01-18T08:56:09.124Z,4.13
2019-01-18T08:58:40.860Z,4.27
2019-01-18T09:01:12.709Z,4.20
2019-01-18T09:03:44.527Z,4.77
2019-01-18T09:06:16.348Z,4.57
2019-01-18T09:08:48.395Z,4.97
2019-01-18T09:11:20.878Z,4.50
2019-01-18T09:13:52.666Z,4.10
2019-01-18T09:16:24.642Z,5.13
2019-01-18T09:18:57.110Z,5.73
2019-01-18T09:21:29.651Z,6.87
2019-01-18T09:24:02.410Z,5.47
2019-01-18T09:26:34.746Z,4.70
2019-01-18T09:29:07.042Z,6.20
2019-01-18T09:31:42.425Z,5.17
2019-01-18T09:34:12.634Z,5.67
2019-01-18T09:36:44.399Z,5.00
2019-01-18T09:39:20.645Z,5.43
2019-01-18T09:41:53.711Z,4.70
2019-01-18T09:44:25.619Z,4.70
2019-01-18T09:46:57.484Z,5.27
2019-01-18T09:49:29.223Z,6.23
2019-01-18T09:52:01.466Z,4.53
2019-01-18T09:54:33.470Z,5.20
2019-01-18T09:57:05.781Z,4.77
2019-01-18T09:59:37.582Z,4.53
2019-01-18T10:02:09.838Z,4.33
2019-01-18T10:04:41.707Z,4.33
2019-01-18T10:07:13.700Z,5.10
2019-01-18T10:09:45.705Z,4.20
2019-01-18T10:12:17.694Z,4.47
2019-01-18T10:14:49.741Z,4.60
2019-01-18T10:17:22.045Z,7.23
2019-01-18T10:19:53.552Z,4.47
2019-01-18T10:22:26.299Z,4.67
2019-01-18T10:25:00.248Z,5.13
2019-01-18T10:27:32.499Z,4.50
2019-01-18T10:30:04.287Z,6.13
2019-01-18T10:32:37.079Z,5.97
2019-01-18T10:35:09.033Z,4.10
2019-01-18T10:37:40.727Z,4.13
2019-01-18T10:40:13.746Z,3.77
2019-01-18T10:42:46.581Z,3.07
2019-01-18T10:45:18.649Z,3.20
2019-01-18T10:47:50.956Z,3.40
2019-01-18T10:50:28.831Z,4.00
2019-01-18T10:53:00.637Z,5.03
2019-01-18T10:55:32.505Z,3.47
2019-01-18T10:58:04.428Z,4.90
2019-01-18T11:00:37.507Z,3.43
2019-01-18T11:03:09.307Z,3.57
2019-01-18T11:05:41.433Z,7.10
2019-01-18T11:08:17.360Z,3.27
2019-01-18T11:10:46.666Z,3.80
2019-01-18T11:13:18.366Z,4.17
2019-01-18T11:15:51.576Z,3.40
2019-01-18T11:18:23.986Z,5.37
2019-01-18T11:21:06.305Z,3.67
2019-01-18T11:23:38.210Z,3.60
2019-01-18T11:26:10.190Z,6.13
2019-01-18T11:28:43.232Z,4.07
2019-01-18T11:31:15.231Z,3.60
2019-01-18T11:33:47.120Z,3.77
2019-01-18T11:36:18.991Z,3.30
2019-01-18T11:38:50.753Z,3.07
2019-01-18T11:41:22.571Z,3.20
2019-01-18T11:43:54.553Z,3.70
2019-01-18T11:46:26.395Z,3.03
2019-01-18T11:48:58.333Z,3.50
2019-01-18T11:51:31.212Z,3.03
2019-01-18T11:54:03.185Z,3.73
2019-01-18T11:56:35.623Z,3.00
2019-01-18T11:59:07.558Z,3.60
2019-01-18T12:01:39.707Z,2.53
2019-01-18T12:04:11.626Z,2.90
2019-01-18T12:06:43.793Z,3.77
2019-01-18T12:09:15.768Z,3.33
2019-01-18T12:11:48.367Z,3.73
2019-01-18T12:14:20.189Z,3.03
2019-01-18T12:16:51.969Z,3.53
2019-01-18T12:19:23.846Z,2.73
2019-01-18T12:21:55.505Z,2.80
2019-01-18T12:24:27.332Z,3.33
2019-01-18T12:26:59.394Z,2.53
2019-01-18T12:29:31.931Z,5.27
2019-01-18T12:32:03.739Z,2.63
2019-01-18T12:34:35.764Z,5.00
2019-01-18T12:37:07.608Z,2.67
2019-01-18T12:39:39.463Z,2.63
2019-01-18T12:42:11.377Z,3.10
2019-01-18T12:44:43.561Z,2.67
2019-01-18T12:47:15.968Z,3.17
2019-01-18T12:49:49.248Z,2.80
2019-01-18T12:52:21.239Z,2.93
2019-01-18T12:54:52.859Z,3.53
2019-01-18T12:57:25.119Z,3.27
2019-01-18T12:59:58.518Z,3.50
2019-01-18T13:02:35.298Z,2.60
2019-01-18T13:05:03.812Z,3.93
2019-01-18T13:07:35.594Z,3.67
2019-01-18T13:10:12.198Z,3.90
2019-01-18T13:12:42.580Z,4.47
2019-01-18T13:15:41.323Z,5.70
2019-01-18T13:18:13.175Z,5.80
2019-01-18T13:20:44.976Z,2.50
2019-01-18T13:23:17.273Z,2.73
2019-01-18T13:25:49.282Z,3.37
2019-01-18T13:28:21.225Z,2.97
2019-01-18T13:30:55.196Z,3.07
2019-01-18T13:33:27.758Z,2.77
2019-01-18T13:36:01.075Z,2.60
2019-01-18T13:38:33.136Z,3.27
2019-01-18T13:41:06.035Z,3.60
2019-01-18T13:43:38.623Z,3.53
2019-01-18T13:46:12.045Z,4.33
2019-01-18T13:48:44.342Z,2.73
2019-01-18T13:51:19.991Z,2.97
2019-01-18T13:53:53.136Z,3.03
2019-01-18T13:56:25.362Z,2.60
2019-01-18T13:58:57.587Z,3.50
2019-01-18T14:01:29.519Z,3.70
2019-01-18T14:04:01.737Z,3.60
2019-01-18T14:06:33.806Z,3.73
2019-01-18T14:09:08.780Z,5.93
2019-01-18T14:11:40.972Z,3.57
2019-01-18T14:14:12.777Z,3.43
2019-01-18T14:16:44.915Z,2.90
2019-01-18T14:19:17.400Z,2.97
2019-01-18T14:21:49.313Z,2.90
2019-01-18T14:24:32.311Z,2.93
2019-01-18T14:27:07.266Z,3.07
2019-01-18T14:29:42.499Z,2.77
2019-01-18T14:32:23.429Z,3.03
2019-01-18T14:35:00.213Z,3.97
2019-01-18T14:37:35.862Z,4.33
2019-01-18T14:40:17.772Z,3.43
2019-01-18T14:42:50.522Z,3.10
2019-01-18T14:45:29.879Z,3.50
2019-01-18T14:48:01.671Z,3.50
2019-01-18T14:50:33.626Z,3.57
2019-01-18T14:53:05.660Z,3.80
2019-01-18T14:55:37.902Z,3.20
2019-01-18T14:58:13.561Z,3.00
2019-01-18T15:00:46.473Z,3.23
2019-01-18T15:03:18.521Z,4.10
2019-01-18T15:05:50.562Z,3.37
2019-01-18T15:08:24.272Z,4.10
2019-01-18T15:10:56.447Z,2.70
2019-01-18T15:13:28.458Z,3.03
2019-01-18T15:16:00.302Z,2.50
2019-01-18T15:18:32.734Z,2.63
2019-01-18T15:21:05.029Z,3.33
2019-01-18T15:23:36.965Z,3.43
2019-01-18T15:26:09.227Z,4.00
2019-01-18T15:28:41.211Z,2.93
2019-01-18T15:31:13.385Z,3.00
2019-01-18T15:33:46.109Z,3.37
2019-01-18T15:36:19.408Z,2.30
2019-01-18T15:38:51.479Z,3.70
2019-01-18T15:41:24.533Z,2.90
2019-01-18T15:43:57.097Z,2.73
2019-01-18T15:46:29.160Z,3.07
2019-01-18T15:49:01.289Z,2.30
2019-01-18T15:51:33.111Z,3.23
2019-01-18T15:54:05.362Z,3.57
2019-01-18T15:56:38.005Z,3.50
2019-01-18T15:59:09.953Z,3.50
2019-01-18T16:01:42.927Z,3.17
2019-01-18T16:04:14.608Z,3.90
2019-01-18T16:06:47.145Z,3.27
2019-01-18T16:09:19.309Z,4.00
2019-01-18T16:11:53.204Z,5.83
2019-01-18T16:14:25.587Z,4.83
2019-01-18T16:17:20.267Z,4.53
2019-01-18T16:19:54.339Z,7.23
2019-01-18T16:22:27.317Z,8.63
2019-01-18T16:25:00.183Z,9.63
2019-01-18T16:27:32.230Z,5.33
2019-01-18T16:30:04.106Z,5.47
2019-01-18T16:32:35.950Z,4.67
2019-01-18T16:35:09.683Z,7.23
2019-01-18T16:37:42.144Z,18.93
2019-01-18T16:40:26.888Z,11.33
2019-01-18T16:43:06.070Z,16.40
2019-01-18T16:45:38.592Z,20.37
2019-01-18T16:48:10.811Z,13.57
2019-01-18T16:50:43.192Z,27.87
2019-01-18T16:53:14.991Z,14.50
2019-01-18T16:55:46.675Z,11.90
2019-01-18T16:58:20.397Z,11.57
2019-01-18T17:00:54.957Z,8.70
2019-01-18T17:03:30.540Z,8.20
2019-01-18T17:06:01.310Z,8.37
2019-01-18T17:08:33.654Z,6.73
2019-01-18T17:11:07.002Z,7.73
2019-01-18T17:13:44.116Z,7.83
2019-01-18T17:16:16.607Z,6.03
2019-01-18T17:18:49.015Z,9.60
2019-01-18T17:21:20.912Z,5.83
2019-01-18T17:23:52.591Z,5.97
2019-01-18T17:26:24.438Z,6.57
2019-01-18T17:28:56.255Z,8.03
2019-01-18T17:31:28.157Z,9.33
2019-01-18T17:34:01.413Z,7.33
2019-01-18T17:36:55.133Z,9.90
2019-01-18T17:40:29.830Z,11.07
2019-01-18T17:43:29.604Z,9.30
2019-01-18T17:47:04.511Z,11.93
2019-01-18T17:50:40.354Z,15.10
2019-01-18T17:54:05.976Z,9.60
2019-01-18T17:57:29.809Z,4.13
2019-01-18T18:01:06.880Z,6.93
2019-01-18T18:04:33.081Z,6.23
2019-01-18T18:07:45.999Z,8.70
2019-01-18T18:11:31.785Z,12.80
2019-01-18T18:14:49.412Z,28.50
2019-01-18T18:17:56.453Z,10.00
2019-01-18T18:21:22.213Z,10.03
2019-01-18T18:24:33.166Z,28.33
2019-01-18T18:27:59.832Z,12.83
2019-01-18T18:31:16.737Z,17.00
2019-01-18T18:34:48.524Z,11.97
2019-01-18T18:38:06.846Z,9.87
2019-01-18T18:41:09.162Z,9.30
2019-01-18T18:44:42.622Z,8.30
2019-01-18T18:48:02.414Z,8.23
2019-01-18T18:51:34.216Z,6.70
2019-01-18T18:55:16.770Z,10.57
2019-01-18T18:58:49.989Z,7.10
2019-01-18T19:02:31.415Z,7.70
2019-01-18T19:06:07.184Z,5.27
2019-01-18T19:09:43.932Z,9.90
2019-01-18T19:12:46.139Z,9.23
2019-01-18T19:16:19.054Z,8.37
2019-01-18T19:19:44.177Z,4.30
2019-01-18T19:23:04.610Z,7.23
2019-01-18T19:26:20.306Z,4.83
2019-01-18T19:29:55.989Z,3.87
2019-01-18T19:33:22.851Z,3.97
2019-01-18T19:36:59.960Z,4.43
2019-01-18T19:40:26.584Z,4.47
2019-01-18T19:44:09.381Z,5.40
2019-01-18T19:47:16.124Z,6.63
2019-01-18T19:50:33.273Z,7.10
2019-01-18T19:54:11.570Z,12.63
2019-01-18T19:57:57.948Z,9.00
2019-01-18T20:01:06.000Z,5.83
2019-01-18T20:04:19.347Z,3.97
2019-01-18T20:08:04.623Z,4.37
2019-01-18T20:11:22.415Z,4.00
2019-01-18T20:15:09.061Z,4.37
2019-01-18T20:18:59.252Z,3.87
2019-01-18T20:22:29.487Z,3.50
2019-01-18T20:26:04.000Z,3.17
2019-01-18T20:29:28.036Z,3.70
2019-01-18T20:32:46.229Z,4.30
2019-01-18T20:36:20.639Z,4.50
2019-01-18T20:39:53.058Z,5.07
2019-01-18T20:43:43.923Z,6.10
2019-01-18T20:46:55.469Z,24.25
2019-01-18T20:50:24.199Z,21.57
2019-01-18T20:53:50.263Z,15.30
2019-01-18T20:56:57.281Z,4.12
2019-01-18T21:00:23.133Z,3.40
2019-01-18T21:04:00.776Z,4.03
2019-01-18T21:07:22.024Z,8.00
2019-01-18T21:10:51.794Z,15.80
2019-01-18T21:14:10.450Z,5.20
2019-01-18T21:17:35.398Z,9.90
2019-01-18T21:21:05.815Z,5.67
2019-01-18T21:24:22.430Z,4.10
2019-01-18T21:27:18.053Z,6.05
2019-01-18T21:30:35.775Z,8.00
2019-01-18T21:34:07.628Z,4.78
2019-01-18T21:37:41.775Z,5.12
2019-01-18T21:41:12.652Z,5.55
2019-01-18T21:44:42.876Z,5.33
2019-01-18T21:48:19.315Z,6.70
2019-01-18T21:51:52.390Z,6.17
2019-01-18T21:55:20.077Z,4.30
2019-01-18T21:58:55.313Z,5.05
2019-01-18T22:02:47.060Z,6.00
2019-01-18T22:05:53.264Z,10.82
2019-01-18T22:09:15.340Z,10.95
2019-01-18T22:12:55.727Z,11.20
2019-01-18T22:16:27.862Z,10.35
2019-01-18T22:20:08.777Z,11.83
2019-01-18T22:23:14.479Z,28.90
2019-01-18T22:26:32.260Z,12.63
2019-01-18T22:29:39.411Z,4.90
2019-01-18T22:33:10.965Z,4.10
2019-01-18T22:36:33.718Z,7.28
2019-01-18T22:39:43.094Z,7.65
2019-01-18T22:42:41.524Z,9.48
2019-01-18T22:45:48.659Z,7.97
2019-01-18T22:49:28.844Z,15.98
2019-01-18T22:52:55.462Z,11.53
2019-01-18T22:56:04.626Z,7.12
2019-01-18T22:59:39.722Z,4.58
2019-01-18T23:03:18.262Z,4.78
2019-01-18T23:07:00.134Z,4.35
2019-01-18T23:10:33.352Z,3.50
2019-01-18T23:14:11.208Z,6.03
2019-01-18T23:17:51.170Z,4.10
2019-01-18T23:21:22.692Z,3.65
2019-01-18T23:24:33.367Z,3.85
2019-01-18T23:28:21.958Z,3.90
2019-01-18T23:31:32.524Z,6.40
2019-01-18T23:34:31.207Z,6.45
2019-01-18T23:37:57.498Z,3.70
2019-01-18T23:41:26.660Z,3.65
2019-01-18T23:44:56.537Z,5.47
2019-01-18T23:48:14.542Z,4.17
2019-01-18T23:52:07.094Z,4.33
2019-01-18T23:55:35.144Z,4.12
2019-01-18T23:58:54.993Z,3.90
